sensor_id;sensor_type;location;lat;lon;timestamp;pressure;altitude;pressure_sealevel;temperature;humidity
47636;BME280;33364;50.766;15.338;2022-07-23T00:00:10;95095.09;;;18.71;67.25
47636;BME280;33364;50.766;15.338;2022-07-23T00:02:56;95100.69;;;18.68;67.44
47636;BME280;33364;50.766;15.338;2022-07-23T00:05:21;95105.06;;;18.83;66.75
47636;BME280;33364;50.766;15.338;2022-07-23T00:07:47;95102.91;;;18.87;66.79
47636;BME280;33364;50.766;15.338;2022-07-23T00:10:13;95101.00;;;18.64;67.33
47636;BME280;33364;50.766;15.338;2022-07-23T00:12:39;95104.31;;;18.50;67.94
47636;BME280;33364;50.766;15.338;2022-07-23T00:15:08;95096.25;;;18.60;68.20
47636;BME280;33364;50.766;15.338;2022-07-23T00:17:33;95106.06;;;18.66;67.61
47636;BME280;33364;50.766;15.338;2022-07-23T00:19:59;95110.03;;;18.70;66.71
47636;BME280;33364;50.766;15.338;2022-07-23T00:22:25;95098.81;;;18.84;66.62
47636;BME280;33364;50.766;15.338;2022-07-23T00:24:50;95099.16;;;18.81;66.33
47636;BME280;33364;50.766;15.338;2022-07-23T00:27:16;95103.00;;;18.62;67.26
47636;BME280;33364;50.766;15.338;2022-07-23T00:29:41;95091.50;;;18.72;66.76
47636;BME280;33364;50.766;15.338;2022-07-23T00:32:07;95093.97;;;18.73;66.42
47636;BME280;33364;50.766;15.338;2022-07-23T00:34:32;95090.16;;;18.84;65.79
47636;BME280;33364;50.766;15.338;2022-07-23T00:36:58;95090.84;;;18.78;66.32
47636;BME280;33364;50.766;15.338;2022-07-23T00:39:23;95093.78;;;18.67;66.82
47636;BME280;33364;50.766;15.338;2022-07-23T00:41:51;95094.78;;;18.74;66.46
47636;BME280;33364;50.766;15.338;2022-07-23T00:44:22;95093.47;;;18.78;66.07
47636;BME280;33364;50.766;15.338;2022-07-23T00:46:51;95092.41;;;18.87;64.90
47636;BME280;33364;50.766;15.338;2022-07-23T00:49:27;95095.00;;;18.95;64.99
47636;BME280;33364;50.766;15.338;2022-07-23T00:51:54;95087.25;;;19.02;64.82
47636;BME280;33364;50.766;15.338;2022-07-23T00:54:26;95075.63;;;19.04;64.42
47636;BME280;33364;50.766;15.338;2022-07-23T00:56:52;95066.47;;;19.00;64.65
47636;BME280;33364;50.766;15.338;2022-07-23T00:59:18;95062.91;;;18.93;65.48
47636;BME280;33364;50.766;15.338;2022-07-23T01:01:44;95066.19;;;18.87;65.50
47636;BME280;33364;50.766;15.338;2022-07-23T01:04:10;95070.19;;;18.67;65.74
47636;BME280;33364;50.766;15.338;2022-07-23T01:06:37;95078.13;;;18.42;67.36
47636;BME280;33364;50.766;15.338;2022-07-23T01:09:04;95078.91;;;18.51;66.92
47636;BME280;33364;50.766;15.338;2022-07-23T01:11:33;95070.88;;;18.69;66.63
47636;BME280;33364;50.766;15.338;2022-07-23T01:13:59;95064.94;;;18.75;66.49
47636;BME280;33364;50.766;15.338;2022-07-23T01:16:25;95054.75;;;18.80;66.43
47636;BME280;33364;50.766;15.338;2022-07-23T01:18:50;95048.19;;;18.84;65.59
47636;BME280;33364;50.766;15.338;2022-07-23T01:21:17;95048.13;;;18.92;64.95
47636;BME280;33364;50.766;15.338;2022-07-23T01:23:43;95054.63;;;19.04;64.77
47636;BME280;33364;50.766;15.338;2022-07-23T01:26:09;95052.84;;;19.05;64.29
47636;BME280;33364;50.766;15.338;2022-07-23T01:28:34;95054.28;;;18.76;65.72
47636;BME280;33364;50.766;15.338;2022-07-23T01:31:00;95058.75;;;18.51;66.63
47636;BME280;33364;50.766;15.338;2022-07-23T01:33:25;95048.63;;;18.48;66.77
47636;BME280;33364;50.766;15.338;2022-07-23T01:35:51;95044.41;;;18.31;67.67
47636;BME280;33364;50.766;15.338;2022-07-23T01:38:16;95050.34;;;18.25;68.23
47636;BME280;33364;50.766;15.338;2022-07-23T01:40:42;95042.78;;;18.38;67.70
47636;BME280;33364;50.766;15.338;2022-07-23T01:43:07;95050.28;;;18.49;66.85
47636;BME280;33364;50.766;15.338;2022-07-23T01:45:33;95039.34;;;18.29;67.45
47636;BME280;33364;50.766;15.338;2022-07-23T01:47:58;95036.41;;;18.32;67.43
47636;BME280;33364;50.766;15.338;2022-07-23T01:50:24;95040.28;;;18.45;67.19
47636;BME280;33364;50.766;15.338;2022-07-23T01:52:49;95039.41;;;18.60;66.62
47636;BME280;33364;50.766;15.338;2022-07-23T01:55:15;95032.22;;;18.62;66.50
47636;BME280;33364;50.766;15.338;2022-07-23T01:57:40;95030.41;;;18.63;66.00
47636;BME280;33364;50.766;15.338;2022-07-23T02:00:07;95031.44;;;18.46;67.15
47636;BME280;33364;50.766;15.338;2022-07-23T02:02:33;95023.06;;;18.50;67.13
47636;BME280;33364;50.766;15.338;2022-07-23T02:04:58;95021.38;;;18.57;66.55
47636;BME280;33364;50.766;15.338;2022-07-23T02:07:24;95027.19;;;18.45;66.73
47636;BME280;33364;50.766;15.338;2022-07-23T02:09:49;95022.34;;;18.25;67.74
47636;BME280;33364;50.766;15.338;2022-07-23T02:12:15;95026.13;;;18.15;67.65
47636;BME280;33364;50.766;15.338;2022-07-23T02:14:40;95022.84;;;18.21;67.69
47636;BME280;33364;50.766;15.338;2022-07-23T02:17:06;95019.56;;;18.19;67.84
47636;BME280;33364;50.766;15.338;2022-07-23T02:19:31;95020.13;;;17.98;68.25
47636;BME280;33364;50.766;15.338;2022-07-23T02:21:57;95013.06;;;17.98;68.46
47636;BME280;33364;50.766;15.338;2022-07-23T02:24:23;95016.66;;;18.14;68.19
47636;BME280;33364;50.766;15.338;2022-07-23T02:26:49;95014.59;;;18.32;67.21
47636;BME280;33364;50.766;15.338;2022-07-23T02:29:15;95005.78;;;18.33;67.15
47636;BME280;33364;50.766;15.338;2022-07-23T02:31:40;95013.97;;;18.30;66.88
47636;BME280;33364;50.766;15.338;2022-07-23T02:34:07;95006.00;;;18.15;67.73
47636;BME280;33364;50.766;15.338;2022-07-23T02:36:32;95002.06;;;18.19;67.62
47636;BME280;33364;50.766;15.338;2022-07-23T02:38:58;94998.75;;;18.17;67.60
47636;BME280;33364;50.766;15.338;2022-07-23T02:41:23;95001.94;;;18.04;68.16
47636;BME280;33364;50.766;15.338;2022-07-23T02:43:50;95007.16;;;18.04;68.13
47636;BME280;33364;50.766;15.338;2022-07-23T02:46:15;94993.91;;;18.06;68.53
47636;BME280;33364;50.766;15.338;2022-07-23T02:48:40;95002.38;;;18.16;67.36
47636;BME280;33364;50.766;15.338;2022-07-23T02:51:06;94999.63;;;18.18;67.62
47636;BME280;33364;50.766;15.338;2022-07-23T02:53:31;95006.47;;;18.19;67.53
47636;BME280;33364;50.766;15.338;2022-07-23T02:55:57;95008.97;;;18.04;67.71
47636;BME280;33364;50.766;15.338;2022-07-23T02:58:23;95015.69;;;17.98;68.07
47636;BME280;33364;50.766;15.338;2022-07-23T03:00:49;95012.41;;;18.04;67.61
47636;BME280;33364;50.766;15.338;2022-07-23T03:03:14;95008.34;;;17.94;68.67
47636;BME280;33364;50.766;15.338;2022-07-23T03:05:40;94998.84;;;17.76;68.90
47636;BME280;33364;50.766;15.338;2022-07-23T03:08:05;95007.88;;;17.74;68.71
47636;BME280;33364;50.766;15.338;2022-07-23T03:10:31;95010.63;;;17.72;68.83
47636;BME280;33364;50.766;15.338;2022-07-23T03:12:56;95007.72;;;17.83;68.94
47636;BME280;33364;50.766;15.338;2022-07-23T03:15:22;95013.22;;;17.97;68.08
47636;BME280;33364;50.766;15.338;2022-07-23T03:17:47;95014.88;;;17.90;68.39
47636;BME280;33364;50.766;15.338;2022-07-23T03:20:13;95021.44;;;17.85;68.69
47636;BME280;33364;50.766;15.338;2022-07-23T03:22:38;95018.66;;;17.79;68.42
47636;BME280;33364;50.766;15.338;2022-07-23T03:25:04;95011.13;;;17.68;69.01
47636;BME280;33364;50.766;15.338;2022-07-23T03:27:30;95013.91;;;17.66;69.25
47636;BME280;33364;50.766;15.338;2022-07-23T03:29:58;95014.09;;;17.73;68.77
47636;BME280;33364;50.766;15.338;2022-07-23T03:32:24;95010.31;;;17.75;69.02
47636;BME280;33364;50.766;15.338;2022-07-23T03:34:50;95000.84;;;17.58;69.72
47636;BME280;33364;50.766;15.338;2022-07-23T03:37:17;95008.34;;;17.61;69.55
47636;BME280;33364;50.766;15.338;2022-07-23T03:39:42;95009.66;;;17.65;69.42
47636;BME280;33364;50.766;15.338;2022-07-23T03:42:08;95007.72;;;17.75;69.04
47636;BME280;33364;50.766;15.338;2022-07-23T03:44:34;95012.63;;;17.78;68.91
47636;BME280;33364;50.766;15.338;2022-07-23T03:46:59;95003.13;;;17.77;69.01
47636;BME280;33364;50.766;15.338;2022-07-23T03:49:25;94997.56;;;17.72;69.35
47636;BME280;33364;50.766;15.338;2022-07-23T03:51:51;95004.28;;;17.75;69.23
47636;BME280;33364;50.766;15.338;2022-07-23T03:54:16;94996.91;;;17.62;70.22
47636;BME280;33364;50.766;15.338;2022-07-23T03:56:42;94993.44;;;17.61;69.71
47636;BME280;33364;50.766;15.338;2022-07-23T03:59:08;94989.38;;;17.67;69.87
47636;BME280;33364;50.766;15.338;2022-07-23T04:01:34;94986.09;;;17.57;70.72
47636;BME280;33364;50.766;15.338;2022-07-23T04:04:01;94985.91;;;17.67;70.43
47636;BME280;33364;50.766;15.338;2022-07-23T04:06:27;94979.09;;;17.74;70.75
47636;BME280;33364;50.766;15.338;2022-07-23T04:08:52;94982.19;;;17.77;70.82
47636;BME280;33364;50.766;15.338;2022-07-23T04:11:18;94981.03;;;17.80;70.24
47636;BME280;33364;50.766;15.338;2022-07-23T04:13:43;94965.63;;;17.85;70.22
47636;BME280;33364;50.766;15.338;2022-07-23T04:16:09;94971.31;;;17.97;70.48
47636;BME280;33364;50.766;15.338;2022-07-23T04:18:34;94957.91;;;18.00;70.44
47636;BME280;33364;50.766;15.338;2022-07-23T04:21:00;94960.47;;;18.16;69.79
47636;BME280;33364;50.766;15.338;2022-07-23T04:23:25;94958.97;;;18.22;69.97
47636;BME280;33364;50.766;15.338;2022-07-23T04:25:51;94959.31;;;18.19;70.84
47636;BME280;33364;50.766;15.338;2022-07-23T04:28:16;94957.16;;;18.22;70.53
47636;BME280;33364;50.766;15.338;2022-07-23T04:30:42;94959.28;;;18.27;70.10
47636;BME280;33364;50.766;15.338;2022-07-23T04:33:08;94946.47;;;18.32;69.93
47636;BME280;33364;50.766;15.338;2022-07-23T04:35:34;94948.78;;;18.35;70.20
47636;BME280;33364;50.766;15.338;2022-07-23T04:37:59;94944.16;;;18.37;70.23
47636;BME280;33364;50.766;15.338;2022-07-23T04:40:26;94944.16;;;18.37;70.51
47636;BME280;33364;50.766;15.338;2022-07-23T04:42:51;94935.34;;;18.38;70.81
47636;BME280;33364;50.766;15.338;2022-07-23T04:45:17;94935.78;;;18.42;71.26
47636;BME280;33364;50.766;15.338;2022-07-23T04:47:43;94932.31;;;18.49;71.03
47636;BME280;33364;50.766;15.338;2022-07-23T04:50:08;94926.34;;;18.63;71.06
47636;BME280;33364;50.766;15.338;2022-07-23T04:52:34;94930.13;;;18.69;71.10
47636;BME280;33364;50.766;15.338;2022-07-23T04:54:59;94929.38;;;18.83;70.25
47636;BME280;33364;50.766;15.338;2022-07-23T04:57:25;94924.25;;;18.90;71.38
47636;BME280;33364;50.766;15.338;2022-07-23T04:59:50;94931.09;;;18.91;71.27
47636;BME280;33364;50.766;15.338;2022-07-23T05:02:16;94928.00;;;18.87;72.20
47636;BME280;33364;50.766;15.338;2022-07-23T05:04:42;94923.13;;;18.84;71.76
47636;BME280;33364;50.766;15.338;2022-07-23T05:07:07;94926.06;;;18.89;71.43
47636;BME280;33364;50.766;15.338;2022-07-23T05:09:33;94918.66;;;18.93;70.54
47636;BME280;33364;50.766;15.338;2022-07-23T05:11:59;94923.66;;;19.03;71.20
47636;BME280;33364;50.766;15.338;2022-07-23T05:14:25;94934.78;;;19.05;71.76
47636;BME280;33364;50.766;15.338;2022-07-23T05:16:50;94931.81;;;19.08;71.40
47636;BME280;33364;50.766;15.338;2022-07-23T05:19:16;94931.13;;;19.14;71.15
47636;BME280;33364;50.766;15.338;2022-07-23T05:21:41;94936.47;;;19.21;71.47
47636;BME280;33364;50.766;15.338;2022-07-23T05:24:07;94937.75;;;19.62;69.13
47636;BME280;33364;50.766;15.338;2022-07-23T05:26:32;94925.66;;;20.06;67.33
47636;BME280;33364;50.766;15.338;2022-07-23T05:28:58;94930.16;;;20.41;66.26
47636;BME280;33364;50.766;15.338;2022-07-23T05:31:23;94936.56;;;20.68;64.97
47636;BME280;33364;50.766;15.338;2022-07-23T05:33:49;94946.78;;;20.78;64.58
47636;BME280;33364;50.766;15.338;2022-07-23T05:36:14;94950.75;;;20.89;65.96
47636;BME280;33364;50.766;15.338;2022-07-23T05:38:40;94950.16;;;20.72;67.56
47636;BME280;33364;50.766;15.338;2022-07-23T05:41:05;94950.50;;;20.84;65.29
47636;BME280;33364;50.766;15.338;2022-07-23T05:43:31;94950.63;;;20.97;65.42
47636;BME280;33364;50.766;15.338;2022-07-23T05:45:57;94942.47;;;21.13;64.68
47636;BME280;33364;50.766;15.338;2022-07-23T05:48:22;94939.16;;;21.26;65.49
47636;BME280;33364;50.766;15.338;2022-07-23T05:50:48;94940.69;;;21.35;67.80
47636;BME280;33364;50.766;15.338;2022-07-23T05:53:13;94944.78;;;21.23;65.37
47636;BME280;33364;50.766;15.338;2022-07-23T05:55:39;94949.44;;;21.42;64.29
47636;BME280;33364;50.766;15.338;2022-07-23T05:58:04;94951.22;;;21.63;65.09
47636;BME280;33364;50.766;15.338;2022-07-23T06:00:30;94948.31;;;21.52;68.01
47636;BME280;33364;50.766;15.338;2022-07-23T06:02:56;94948.59;;;21.63;64.20
47636;BME280;33364;50.766;15.338;2022-07-23T06:05:22;94950.53;;;21.76;66.74
47636;BME280;33364;50.766;15.338;2022-07-23T06:07:48;94948.81;;;21.90;62.77
47636;BME280;33364;50.766;15.338;2022-07-23T06:10:14;94934.88;;;22.03;63.00
47636;BME280;33364;50.766;15.338;2022-07-23T06:12:40;94938.81;;;22.13;62.39
47636;BME280;33364;50.766;15.338;2022-07-23T06:15:06;94938.47;;;22.23;61.62
47636;BME280;33364;50.766;15.338;2022-07-23T06:17:32;94937.88;;;22.28;63.82
47636;BME280;33364;50.766;15.338;2022-07-23T06:19:58;94936.47;;;22.25;62.30
47636;BME280;33364;50.766;15.338;2022-07-23T06:22:23;94944.38;;;22.25;63.08
47636;BME280;33364;50.766;15.338;2022-07-23T06:24:49;94936.06;;;22.28;61.92
47636;BME280;33364;50.766;15.338;2022-07-23T06:27:16;94943.38;;;22.33;62.00
47636;BME280;33364;50.766;15.338;2022-07-23T06:29:41;94931.00;;;22.33;64.08
47636;BME280;33364;50.766;15.338;2022-07-23T06:32:07;94923.50;;;22.30;62.94
47636;BME280;33364;50.766;15.338;2022-07-23T06:34:33;94929.38;;;22.32;64.19
47636;BME280;33364;50.766;15.338;2022-07-23T06:36:59;94938.28;;;22.25;67.73
47636;BME280;33364;50.766;15.338;2022-07-23T06:39:24;94939.19;;;22.10;66.85
47636;BME280;33364;50.766;15.338;2022-07-23T06:41:50;94940.06;;;22.17;63.52
47636;BME280;33364;50.766;15.338;2022-07-23T06:44:16;94948.13;;;22.09;69.43
47636;BME280;33364;50.766;15.338;2022-07-23T06:46:42;94942.63;;;22.04;68.39
47636;BME280;33364;50.766;15.338;2022-07-23T06:49:07;94945.94;;;21.85;70.15
47636;BME280;33364;50.766;15.338;2022-07-23T06:51:33;94938.78;;;21.79;70.54
47636;BME280;33364;50.766;15.338;2022-07-23T06:53:59;94943.28;;;21.57;72.15
47636;BME280;33364;50.766;15.338;2022-07-23T06:56:24;94946.84;;;21.70;67.83
47636;BME280;33364;50.766;15.338;2022-07-23T06:58:50;94959.00;;;21.71;72.61
47636;BME280;33364;50.766;15.338;2022-07-23T07:01:15;94961.59;;;21.65;69.28
47636;BME280;33364;50.766;15.338;2022-07-23T07:03:41;94969.88;;;21.90;67.33
47636;BME280;33364;50.766;15.338;2022-07-23T07:06:07;94969.47;;;21.93;70.26
47636;BME280;33364;50.766;15.338;2022-07-23T07:08:32;94963.97;;;21.88;67.15
47636;BME280;33364;50.766;15.338;2022-07-23T07:10:58;94975.53;;;21.87;71.16
47636;BME280;33364;50.766;15.338;2022-07-23T07:13:23;94982.19;;;21.83;69.75
47636;BME280;33364;50.766;15.338;2022-07-23T07:15:49;94990.41;;;21.73;71.12
47636;BME280;33364;50.766;15.338;2022-07-23T07:18:14;94998.97;;;21.75;68.57
47636;BME280;33364;50.766;15.338;2022-07-23T07:20:40;95001.97;;;21.72;70.56
47636;BME280;33364;50.766;15.338;2022-07-23T07:23:05;95001.75;;;21.73;69.35
47636;BME280;33364;50.766;15.338;2022-07-23T07:25:30;94996.16;;;21.83;68.19
47636;BME280;33364;50.766;15.338;2022-07-23T07:27:56;94990.19;;;21.96;68.30
47636;BME280;33364;50.766;15.338;2022-07-23T07:30:21;94993.44;;;21.98;68.29
47636;BME280;33364;50.766;15.338;2022-07-23T07:32:47;94992.81;;;21.96;70.01
47636;BME280;33364;50.766;15.338;2022-07-23T07:35:13;94997.09;;;21.97;69.75
47636;BME280;33364;50.766;15.338;2022-07-23T07:37:38;94991.38;;;22.15;66.30
47636;BME280;33364;50.766;15.338;2022-07-23T07:40:04;94971.38;;;22.34;65.77
47636;BME280;33364;50.766;15.338;2022-07-23T07:42:30;94968.72;;;22.34;70.06
47636;BME280;33364;50.766;15.338;2022-07-23T07:44:57;94950.88;;;22.29;69.30
47636;BME280;33364;50.766;15.338;2022-07-23T07:47:22;94944.38;;;22.25;68.31
47636;BME280;33364;50.766;15.338;2022-07-23T07:49:48;94928.19;;;22.35;68.86
47636;BME280;33364;50.766;15.338;2022-07-23T07:52:14;94922.56;;;22.44;66.32
47636;BME280;33364;50.766;15.338;2022-07-23T07:54:39;94922.78;;;22.56;66.73
47636;BME280;33364;50.766;15.338;2022-07-23T07:57:05;94918.97;;;22.65;67.25
47636;BME280;33364;50.766;15.338;2022-07-23T07:59:30;94922.81;;;22.63;67.24
47636;BME280;33364;50.766;15.338;2022-07-23T08:01:56;94936.97;;;22.48;69.42
47636;BME280;33364;50.766;15.338;2022-07-23T08:04:21;94947.34;;;22.50;68.01
47636;BME280;33364;50.766;15.338;2022-07-23T08:06:47;94952.84;;;22.68;68.85
47636;BME280;33364;50.766;15.338;2022-07-23T08:09:12;94943.75;;;22.78;70.76
47636;BME280;33364;50.766;15.338;2022-07-23T08:11:38;94943.97;;;22.69;70.48
47636;BME280;33364;50.766;15.338;2022-07-23T08:14:03;94951.22;;;22.54;71.28
47636;BME280;33364;50.766;15.338;2022-07-23T08:16:29;94958.03;;;22.42;71.31
47636;BME280;33364;50.766;15.338;2022-07-23T08:18:54;94956.00;;;22.44;70.72
47636;BME280;33364;50.766;15.338;2022-07-23T08:21:20;94955.03;;;22.52;71.33
47636;BME280;33364;50.766;15.338;2022-07-23T08:23:45;94957.31;;;22.61;70.20
47636;BME280;33364;50.766;15.338;2022-07-23T08:26:12;94945.16;;;22.73;68.45
47636;BME280;33364;50.766;15.338;2022-07-23T08:28:37;94947.25;;;22.85;68.16
47636;BME280;33364;50.766;15.338;2022-07-23T08:31:03;94954.53;;;22.83;68.00
47636;BME280;33364;50.766;15.338;2022-07-23T08:33:31;94966.38;;;22.93;66.57
47636;BME280;33364;50.766;15.338;2022-07-23T08:35:56;94967.81;;;23.03;64.40
47636;BME280;33364;50.766;15.338;2022-07-23T08:38:22;94984.97;;;23.40;65.44
47636;BME280;33364;50.766;15.338;2022-07-23T08:40:50;94982.78;;;23.90;61.96
47636;BME280;33364;50.766;15.338;2022-07-23T08:43:21;94978.81;;;24.39;59.61
47636;BME280;33364;50.766;15.338;2022-07-23T08:45:49;94978.09;;;24.70;55.14
47636;BME280;33364;50.766;15.338;2022-07-23T08:48:20;94987.66;;;24.77;55.45
47636;BME280;33364;50.766;15.338;2022-07-23T08:50:51;94980.13;;;24.74;54.31
47636;BME280;33364;50.766;15.338;2022-07-23T08:53:19;94976.13;;;24.59;54.25
47636;BME280;33364;50.766;15.338;2022-07-23T08:55:45;94971.25;;;24.49;54.97
47636;BME280;33364;50.766;15.338;2022-07-23T08:58:12;94976.22;;;24.25;53.45
47636;BME280;33364;50.766;15.338;2022-07-23T09:00:38;94978.84;;;24.19;53.57
47636;BME280;33364;50.766;15.338;2022-07-23T09:03:03;94981.69;;;24.24;53.93
47636;BME280;33364;50.766;15.338;2022-07-23T09:05:29;94978.47;;;24.15;56.60
47636;BME280;33364;50.766;15.338;2022-07-23T09:10:58;94985.63;;;23.82;55.80
47636;BME280;33364;50.766;15.338;2022-07-23T09:16:02;94978.69;;;23.67;54.62
47636;BME280;33364;50.766;15.338;2022-07-23T09:23:54;94988.47;;;23.67;54.16
47636;BME280;33364;50.766;15.338;2022-07-23T09:26:33;94996.59;;;23.65;53.34
47636;BME280;33364;50.766;15.338;2022-07-23T09:29:17;94995.56;;;23.60;52.48
47636;BME280;33364;50.766;15.338;2022-07-23T09:34:29;95000.63;;;23.55;54.23
47636;BME280;33364;50.766;15.338;2022-07-23T09:37:18;94996.34;;;23.60;53.30
47636;BME280;33364;50.766;15.338;2022-07-23T09:39:44;94999.41;;;23.64;53.13
47636;BME280;33364;50.766;15.338;2022-07-23T09:42:14;94994.94;;;23.64;53.73
47636;BME280;33364;50.766;15.338;2022-07-23T09:44:42;94987.66;;;23.66;53.62
47636;BME280;33364;50.766;15.338;2022-07-23T09:47:08;94979.31;;;23.83;54.04
47636;BME280;33364;50.766;15.338;2022-07-23T09:49:34;94973.38;;;23.94;52.69
47636;BME280;33364;50.766;15.338;2022-07-23T09:52:00;94975.00;;;24.15;53.05
47636;BME280;33364;50.766;15.338;2022-07-23T09:54:33;94963.75;;;24.46;52.40
47636;BME280;33364;50.766;15.338;2022-07-23T09:59:32;94956.72;;;25.73;48.68
47636;BME280;33364;50.766;15.338;2022-07-23T10:01:59;94949.50;;;25.87;47.16
47636;BME280;33364;50.766;15.338;2022-07-23T10:04:27;94948.97;;;25.78;47.34
47636;BME280;33364;50.766;15.338;2022-07-23T10:06:56;94948.06;;;26.09;49.17
47636;BME280;33364;50.766;15.338;2022-07-23T10:09:31;94934.25;;;26.44;46.57
47636;BME280;33364;50.766;15.338;2022-07-23T10:11:57;94930.06;;;26.84;46.45
47636;BME280;33364;50.766;15.338;2022-07-23T10:14:32;94934.03;;;27.12;46.32
47636;BME280;33364;50.766;15.338;2022-07-23T10:17:01;94927.00;;;27.18;46.09
47636;BME280;33364;50.766;15.338;2022-07-23T10:19:27;94924.41;;;27.41;45.08
47636;BME280;33364;50.766;15.338;2022-07-23T10:21:57;94925.22;;;27.42;45.85
47636;BME280;33364;50.766;15.338;2022-07-23T10:24:36;94929.19;;;27.62;45.50
47636;BME280;33364;50.766;15.338;2022-07-23T10:37:53;94943.09;;;28.11;43.98
47636;BME280;33364;50.766;15.338;2022-07-23T10:40:21;94947.63;;;28.34;43.66
47636;BME280;33364;50.766;15.338;2022-07-23T10:42:50;94949.75;;;28.61;43.29
47636;BME280;33364;50.766;15.338;2022-07-23T10:45:36;94947.53;;;28.70;44.79
47636;BME280;33364;50.766;15.338;2022-07-23T10:48:13;94940.63;;;28.57;43.04
47636;BME280;33364;50.766;15.338;2022-07-23T10:50:40;94944.25;;;28.16;44.55
47636;BME280;33364;50.766;15.338;2022-07-23T10:57:57;94939.22;;;29.06;43.03
47636;BME280;33364;50.766;15.338;2022-07-23T11:00:27;94931.81;;;29.25;42.81
47636;BME280;33364;50.766;15.338;2022-07-23T11:02:58;94929.94;;;29.09;43.54
47636;BME280;33364;50.766;15.338;2022-07-23T11:05:38;94937.28;;;28.90;42.70
47636;BME280;33364;50.766;15.338;2022-07-23T11:10:39;94930.22;;;29.24;44.95
47636;BME280;33364;50.766;15.338;2022-07-23T11:16:19;94939.66;;;29.77;41.41
47636;BME280;33364;50.766;15.338;2022-07-23T11:32:22;94940.44;;;28.23;43.67
47636;BME280;33364;50.766;15.338;2022-07-23T11:34:50;94943.53;;;28.20;43.19
47636;BME280;33364;50.766;15.338;2022-07-23T11:37:38;94942.72;;;28.20;43.47
47636;BME280;33364;50.766;15.338;2022-07-23T11:40:07;94943.66;;;28.25;43.37
47636;BME280;33364;50.766;15.338;2022-07-23T11:42:35;94946.94;;;28.79;44.47
47636;BME280;33364;50.766;15.338;2022-07-23T11:45:01;94946.47;;;29.23;43.95
47636;BME280;33364;50.766;15.338;2022-07-23T11:47:27;94940.16;;;29.57;42.09
47636;BME280;33364;50.766;15.338;2022-07-23T11:49:58;94945.41;;;29.40;41.68
47636;BME280;33364;50.766;15.338;2022-07-23T11:52:25;94940.13;;;29.74;40.14
47636;BME280;33364;50.766;15.338;2022-07-23T11:54:51;94933.97;;;29.90;41.07
47636;BME280;33364;50.766;15.338;2022-07-23T11:57:18;94929.38;;;29.86;40.02
47636;BME280;33364;50.766;15.338;2022-07-23T11:59:47;94921.69;;;29.56;41.73
47636;BME280;33364;50.766;15.338;2022-07-23T12:02:15;94919.69;;;29.63;42.11
47636;BME280;33364;50.766;15.338;2022-07-23T12:04:43;94918.06;;;29.62;41.93
47636;BME280;33364;50.766;15.338;2022-07-23T12:10:02;94920.91;;;29.72;39.46
47636;BME280;33364;50.766;15.338;2022-07-23T12:12:35;94918.72;;;29.69;40.24
47636;BME280;33364;50.766;15.338;2022-07-23T12:15:01;94907.97;;;29.98;41.40
47636;BME280;33364;50.766;15.338;2022-07-23T12:17:30;94912.69;;;30.29;40.13
47636;BME280;33364;50.766;15.338;2022-07-23T12:19:58;94913.16;;;30.26;38.24
47636;BME280;33364;50.766;15.338;2022-07-23T12:22:25;94918.78;;;30.08;39.85
47636;BME280;33364;50.766;15.338;2022-07-23T12:24:59;94900.69;;;30.32;40.70
47636;BME280;33364;50.766;15.338;2022-07-23T12:27:26;94908.00;;;30.20;41.05
47636;BME280;33364;50.766;15.338;2022-07-23T12:29:52;94910.34;;;29.32;40.42
47636;BME280;33364;50.766;15.338;2022-07-23T12:32:28;94918.63;;;28.90;41.82
47636;BME280;33364;50.766;15.338;2022-07-23T12:35:07;94919.16;;;27.76;45.39
47636;BME280;33364;50.766;15.338;2022-07-23T12:37:38;94928.88;;;27.29;48.57
47636;BME280;33364;50.766;15.338;2022-07-23T12:42:50;94937.53;;;27.24;49.85
47636;BME280;33364;50.766;15.338;2022-07-23T12:45:16;94938.88;;;27.57;47.00
47636;BME280;33364;50.766;15.338;2022-07-23T12:48:18;94944.47;;;27.91;48.00
47636;BME280;33364;50.766;15.338;2022-07-23T12:53:16;94948.13;;;28.60;47.30
47636;BME280;33364;50.766;15.338;2022-07-23T12:55:43;94939.09;;;28.61;45.84
47636;BME280;33364;50.766;15.338;2022-07-23T12:58:17;94950.69;;;28.55;45.86
47636;BME280;33364;50.766;15.338;2022-07-23T13:01:03;94948.13;;;27.66;47.08
47636;BME280;33364;50.766;15.338;2022-07-23T13:05:57;94961.56;;;27.29;47.93
47636;BME280;33364;50.766;15.338;2022-07-23T13:08:23;94964.84;;;27.31;48.70
47636;BME280;33364;50.766;15.338;2022-07-23T13:10:49;94961.50;;;27.48;47.62
47636;BME280;33364;50.766;15.338;2022-07-23T13:13:21;94969.34;;;27.73;48.74
47636;BME280;33364;50.766;15.338;2022-07-23T13:15:47;94977.69;;;27.76;47.78
47636;BME280;33364;50.766;15.338;2022-07-23T13:18:12;94960.47;;;28.02;48.34
47636;BME280;33364;50.766;15.338;2022-07-23T13:20:38;94963.44;;;27.94;45.99
47636;BME280;33364;50.766;15.338;2022-07-23T13:23:07;94976.09;;;27.57;46.85
47636;BME280;33364;50.766;15.338;2022-07-23T13:25:33;94967.00;;;27.04;47.59
47636;BME280;33364;50.766;15.338;2022-07-23T13:27:59;94972.47;;;26.61;48.81
47636;BME280;33364;50.766;15.338;2022-07-23T13:30:24;94974.41;;;26.11;50.27
47636;BME280;33364;50.766;15.338;2022-07-23T13:32:50;94966.75;;;25.39;51.42
47636;BME280;33364;50.766;15.338;2022-07-23T13:35:15;94967.47;;;25.28;52.40
47636;BME280;33364;50.766;15.338;2022-07-23T13:37:41;94975.00;;;25.24;53.01
47636;BME280;33364;50.766;15.338;2022-07-23T13:40:07;94978.06;;;25.28;53.03
47636;BME280;33364;50.766;15.338;2022-07-23T13:42:33;94981.28;;;24.92;54.66
47636;BME280;33364;50.766;15.338;2022-07-23T13:44:58;94991.38;;;24.63;55.16
47636;BME280;33364;50.766;15.338;2022-07-23T13:47:24;94989.63;;;24.24;56.26
47636;BME280;33364;50.766;15.338;2022-07-23T13:49:49;94986.41;;;24.02;57.17